Aviation Digital Data Service (ADDS)

Output produced by METARs form (1323 UTC 15 November 2018)
found at http://www.aviationweather.gov/metar/data/
 
TAF MTCH 151100Z 1512/1612 VRB02KT 9999 FEW022 
     BECMG 1516/1518 05010KT 
     TEMPO 1519/1602 4500 +TSRA BKN016CB OVC040 
     BECMG 1606/1608 VRB02KT 7000 NSW FEW018 SCT080
       
TAF MTPP 151100Z 1512/1612 12010KT 9999 FEW012 
     PROB40 
     TEMPO 1518/1602 VRB10G20KT 4000 TSRA SCT014CB BKN030 
     BECMG 1606/1610 VRB02KT 8000 NSW FEW016 SCT0200